sensor_id;sensor_type;location;lat;lon;timestamp;temperature;humidity
1880;DHT22;49285;49.002;8.390;2023-02-04T00:01:00;10.10;99.90
1880;DHT22;49285;49.002;8.390;2023-02-04T00:03:25;10.10;99.90
1880;DHT22;49285;49.002;8.390;2023-02-04T00:05:51;10.00;99.90
1880;DHT22;49285;49.002;8.390;2023-02-04T00:08:16;10.00;99.90
1880;DHT22;49285;49.002;8.390;2023-02-04T00:10:42;10.10;99.90
1880;DHT22;49285;49.002;8.390;2023-02-04T00:13:08;10.10;99.90
1880;DHT22;49285;49.002;8.390;2023-02-04T00:15:33;10.00;99.90
1880;DHT22;49285;49.002;8.390;2023-02-04T00:17:59;9.90;99.90
1880;DHT22;49285;49.002;8.390;2023-02-04T00:20:25;10.00;99.90
1880;DHT22;49285;49.002;8.390;2023-02-04T00:22:50;10.00;99.90
1880;DHT22;49285;49.002;8.390;2023-02-04T00:25:16;9.90;99.90
1880;DHT22;49285;49.002;8.390;2023-02-04T00:27:42;10.00;99.90
1880;DHT22;49285;49.002;8.390;2023-02-04T00:30:08;10.00;99.90
1880;DHT22;49285;49.002;8.390;2023-02-04T00:32:34;9.90;99.90
1880;DHT22;49285;49.002;8.390;2023-02-04T00:35:00;9.90;99.90
1880;DHT22;49285;49.002;8.390;2023-02-04T00:37:29;9.90;99.90
1880;DHT22;49285;49.002;8.390;2023-02-04T00:39:54;9.90;99.90
1880;DHT22;49285;49.002;8.390;2023-02-04T00:42:20;9.90;99.90
1880;DHT22;49285;49.002;8.390;2023-02-04T00:44:45;9.80;99.90
1880;DHT22;49285;49.002;8.390;2023-02-04T00:47:11;9.80;99.90
1880;DHT22;49285;49.002;8.390;2023-02-04T00:49:37;9.90;99.90
1880;DHT22;49285;49.002;8.390;2023-02-04T00:52:02;9.90;99.90
1880;DHT22;49285;49.002;8.390;2023-02-04T00:54:28;9.80;99.90
1880;DHT22;49285;49.002;8.390;2023-02-04T00:56:53;9.80;99.90
1880;DHT22;49285;49.002;8.390;2023-02-04T00:59:19;9.70;99.90
1880;DHT22;49285;49.002;8.390;2023-02-04T01:01:44;9.80;99.90
1880;DHT22;49285;49.002;8.390;2023-02-04T01:04:10;9.90;99.90
1880;DHT22;49285;49.002;8.390;2023-02-04T01:06:36;9.80;99.90
1880;DHT22;49285;49.002;8.390;2023-02-04T01:09:02;9.80;99.90
1880;DHT22;49285;49.002;8.390;2023-02-04T01:11:29;9.80;99.90
1880;DHT22;49285;49.002;8.390;2023-02-04T01:13:55;9.80;99.90
1880;DHT22;49285;49.002;8.390;2023-02-04T01:16:20;9.70;99.90
1880;DHT22;49285;49.002;8.390;2023-02-04T01:18:46;9.80;99.90
1880;DHT22;49285;49.002;8.390;2023-02-04T01:21:12;9.70;99.90
1880;DHT22;49285;49.002;8.390;2023-02-04T01:23:37;9.80;99.90
1880;DHT22;49285;49.002;8.390;2023-02-04T01:26:03;9.70;99.90
1880;DHT22;49285;49.002;8.390;2023-02-04T01:28:29;9.80;99.90
1880;DHT22;49285;49.002;8.390;2023-02-04T01:30:55;9.80;99.90
1880;DHT22;49285;49.002;8.390;2023-02-04T01:33:21;9.80;99.90
1880;DHT22;49285;49.002;8.390;2023-02-04T01:35:47;9.70;99.90
1880;DHT22;49285;49.002;8.390;2023-02-04T01:38:12;9.70;99.90
1880;DHT22;49285;49.002;8.390;2023-02-04T01:40:38;9.80;99.90
1880;DHT22;49285;49.002;8.390;2023-02-04T01:43:05;9.80;99.90
1880;DHT22;49285;49.002;8.390;2023-02-04T01:45:31;9.60;99.90
1880;DHT22;49285;49.002;8.390;2023-02-04T01:47:59;9.70;99.90
1880;DHT22;49285;49.002;8.390;2023-02-04T01:50:24;9.70;99.90
1880;DHT22;49285;49.002;8.390;2023-02-04T01:52:50;9.60;99.90
1880;DHT22;49285;49.002;8.390;2023-02-04T01:55:19;9.60;99.90
1880;DHT22;49285;49.002;8.390;2023-02-04T01:57:45;9.60;99.90
1880;DHT22;49285;49.002;8.390;2023-02-04T02:00:28;9.60;99.90
1880;DHT22;49285;49.002;8.390;2023-02-04T02:02:54;9.60;99.90
1880;DHT22;49285;49.002;8.390;2023-02-04T02:05:26;9.60;99.90
1880;DHT22;49285;49.002;8.390;2023-02-04T02:07:55;9.60;99.90
1880;DHT22;49285;49.002;8.390;2023-02-04T02:10:23;9.50;99.90
1880;DHT22;49285;49.002;8.390;2023-02-04T02:12:49;9.50;99.90
1880;DHT22;49285;49.002;8.390;2023-02-04T02:15:15;9.60;99.90
1880;DHT22;49285;49.002;8.390;2023-02-04T02:17:41;9.50;99.90
1880;DHT22;49285;49.002;8.390;2023-02-04T02:20:09;9.60;99.90
1880;DHT22;49285;49.002;8.390;2023-02-04T02:25:25;9.60;99.90
1880;DHT22;49285;49.002;8.390;2023-02-04T02:27:51;9.70;99.90
1880;DHT22;49285;49.002;8.390;2023-02-04T02:30:17;9.70;99.90
1880;DHT22;49285;49.002;8.390;2023-02-04T02:32:45;9.80;99.90
1880;DHT22;49285;49.002;8.390;2023-02-04T02:35:11;9.80;99.90
1880;DHT22;49285;49.002;8.390;2023-02-04T02:37:36;9.80;99.90
1880;DHT22;49285;49.002;8.390;2023-02-04T02:40:03;9.80;99.90
1880;DHT22;49285;49.002;8.390;2023-02-04T02:42:30;9.80;99.90
1880;DHT22;49285;49.002;8.390;2023-02-04T02:44:56;9.90;99.90
1880;DHT22;49285;49.002;8.390;2023-02-04T02:47:22;9.90;99.90
1880;DHT22;49285;49.002;8.390;2023-02-04T02:49:52;9.90;99.90
1880;DHT22;49285;49.002;8.390;2023-02-04T02:52:19;10.10;99.90
1880;DHT22;49285;49.002;8.390;2023-02-04T02:54:45;10.00;99.90
1880;DHT22;49285;49.002;8.390;2023-02-04T02:57:15;10.00;99.90
1880;DHT22;49285;49.002;8.390;2023-02-04T02:59:41;9.90;99.90
1880;DHT22;49285;49.002;8.390;2023-02-04T03:02:07;10.00;99.90
1880;DHT22;49285;49.002;8.390;2023-02-04T03:04:36;10.00;99.90
1880;DHT22;49285;49.002;8.390;2023-02-04T03:07:03;10.00;99.90
1880;DHT22;49285;49.002;8.390;2023-02-04T03:09:29;10.00;99.90
1880;DHT22;49285;49.002;8.390;2023-02-04T03:11:54;10.00;99.90
1880;DHT22;49285;49.002;8.390;2023-02-04T03:14:21;10.00;99.90
1880;DHT22;49285;49.002;8.390;2023-02-04T03:16:49;9.90;99.90
1880;DHT22;49285;49.002;8.390;2023-02-04T03:19:15;10.00;99.90
1880;DHT22;49285;49.002;8.390;2023-02-04T03:21:41;10.00;99.90
1880;DHT22;49285;49.002;8.390;2023-02-04T03:24:07;10.00;99.90
1880;DHT22;49285;49.002;8.390;2023-02-04T03:26:33;10.10;99.90
1880;DHT22;49285;49.002;8.390;2023-02-04T03:28:58;10.10;99.90
1880;DHT22;49285;49.002;8.390;2023-02-04T03:31:24;10.00;99.90
1880;DHT22;49285;49.002;8.390;2023-02-04T03:33:50;10.00;99.90
1880;DHT22;49285;49.002;8.390;2023-02-04T03:36:15;10.00;99.90
1880;DHT22;49285;49.002;8.390;2023-02-04T03:38:41;10.10;99.90
1880;DHT22;49285;49.002;8.390;2023-02-04T03:41:07;10.10;99.90
1880;DHT22;49285;49.002;8.390;2023-02-04T03:43:32;10.10;99.90
1880;DHT22;49285;49.002;8.390;2023-02-04T03:45:58;10.20;99.90
1880;DHT22;49285;49.002;8.390;2023-02-04T03:48:23;10.10;99.90
1880;DHT22;49285;49.002;8.390;2023-02-04T03:50:49;10.10;99.90
1880;DHT22;49285;49.002;8.390;2023-02-04T03:53:14;10.10;99.90
1880;DHT22;49285;49.002;8.390;2023-02-04T03:55:40;10.20;99.90
1880;DHT22;49285;49.002;8.390;2023-02-04T03:58:06;10.20;99.90
1880;DHT22;49285;49.002;8.390;2023-02-04T04:00:32;10.20;99.90
1880;DHT22;49285;49.002;8.390;2023-02-04T04:02:58;10.20;99.90
1880;DHT22;49285;49.002;8.390;2023-02-04T04:05:24;10.20;99.90
1880;DHT22;49285;49.002;8.390;2023-02-04T04:07:50;10.20;99.90
1880;DHT22;49285;49.002;8.390;2023-02-04T04:10:16;10.10;99.90
1880;DHT22;49285;49.002;8.390;2023-02-04T04:12:42;10.10;99.90
1880;DHT22;49285;49.002;8.390;2023-02-04T04:15:07;10.10;99.90
1880;DHT22;49285;49.002;8.390;2023-02-04T04:17:33;10.10;99.90
1880;DHT22;49285;49.002;8.390;2023-02-04T04:19:59;10.10;99.90
1880;DHT22;49285;49.002;8.390;2023-02-04T04:22:24;10.10;99.90
1880;DHT22;49285;49.002;8.390;2023-02-04T04:24:50;10.00;99.90
1880;DHT22;49285;49.002;8.390;2023-02-04T04:27:16;10.00;99.90
1880;DHT22;49285;49.002;8.390;2023-02-04T04:29:41;10.00;99.90
1880;DHT22;49285;49.002;8.390;2023-02-04T04:32:07;10.00;99.90
1880;DHT22;49285;49.002;8.390;2023-02-04T04:34:34;10.00;99.90
1880;DHT22;49285;49.002;8.390;2023-02-04T04:36:59;9.90;99.90
1880;DHT22;49285;49.002;8.390;2023-02-04T04:39:25;9.80;99.90
1880;DHT22;49285;49.002;8.390;2023-02-04T04:41:51;9.80;99.90
1880;DHT22;49285;49.002;8.390;2023-02-04T04:44:16;9.80;99.90
1880;DHT22;49285;49.002;8.390;2023-02-04T04:46:42;9.80;99.90
1880;DHT22;49285;49.002;8.390;2023-02-04T04:49:07;9.80;99.90
1880;DHT22;49285;49.002;8.390;2023-02-04T04:51:33;9.90;99.90
1880;DHT22;49285;49.002;8.390;2023-02-04T04:53:58;9.90;99.90
1880;DHT22;49285;49.002;8.390;2023-02-04T04:56:24;9.90;99.90
1880;DHT22;49285;49.002;8.390;2023-02-04T04:58:50;9.80;99.90
1880;DHT22;49285;49.002;8.390;2023-02-04T05:01:16;9.80;99.90
1880;DHT22;49285;49.002;8.390;2023-02-04T05:03:41;9.80;99.90
1880;DHT22;49285;49.002;8.390;2023-02-04T05:06:07;9.80;99.90
1880;DHT22;49285;49.002;8.390;2023-02-04T05:08:33;9.90;99.90
1880;DHT22;49285;49.002;8.390;2023-02-04T05:11:00;9.70;99.90
1880;DHT22;49285;49.002;8.390;2023-02-04T05:13:26;9.80;99.90
1880;DHT22;49285;49.002;8.390;2023-02-04T05:15:52;9.70;99.90
1880;DHT22;49285;49.002;8.390;2023-02-04T05:18:17;9.60;99.90
1880;DHT22;49285;49.002;8.390;2023-02-04T05:20:43;9.60;99.90
1880;DHT22;49285;49.002;8.390;2023-02-04T05:23:08;9.60;99.90
1880;DHT22;49285;49.002;8.390;2023-02-04T05:25:34;9.70;99.90
1880;DHT22;49285;49.002;8.390;2023-02-04T05:27:59;9.60;99.90
1880;DHT22;49285;49.002;8.390;2023-02-04T05:30:25;9.50;99.90
1880;DHT22;49285;49.002;8.390;2023-02-04T05:32:50;9.50;99.90
1880;DHT22;49285;49.002;8.390;2023-02-04T05:35:16;9.60;99.90
1880;DHT22;49285;49.002;8.390;2023-02-04T05:37:42;9.50;99.90
1880;DHT22;49285;49.002;8.390;2023-02-04T05:40:08;9.50;99.90
1880;DHT22;49285;49.002;8.390;2023-02-04T05:42:33;9.60;99.90
1880;DHT22;49285;49.002;8.390;2023-02-04T05:44:59;9.60;99.90
1880;DHT22;49285;49.002;8.390;2023-02-04T05:47:24;9.70;99.90
1880;DHT22;49285;49.002;8.390;2023-02-04T05:49:50;9.70;99.90
1880;DHT22;49285;49.002;8.390;2023-02-04T05:52:16;9.70;99.90
1880;DHT22;49285;49.002;8.390;2023-02-04T05:54:41;9.70;99.90
1880;DHT22;49285;49.002;8.390;2023-02-04T05:57:07;9.70;99.90
1880;DHT22;49285;49.002;8.390;2023-02-04T05:59:32;9.70;99.90
1880;DHT22;49285;49.002;8.390;2023-02-04T06:01:58;9.70;99.90
1880;DHT22;49285;49.002;8.390;2023-02-04T06:04:23;9.70;99.90
1880;DHT22;49285;49.002;8.390;2023-02-04T06:06:49;9.70;99.90
1880;DHT22;49285;49.002;8.390;2023-02-04T06:09:15;9.70;99.90
1880;DHT22;49285;49.002;8.390;2023-02-04T06:11:40;9.70;99.90
1880;DHT22;49285;49.002;8.390;2023-02-04T06:14:06;9.80;99.90
1880;DHT22;49285;49.002;8.390;2023-02-04T06:16:32;9.80;99.90
1880;DHT22;49285;49.002;8.390;2023-02-04T06:18:58;9.80;99.90
1880;DHT22;49285;49.002;8.390;2023-02-04T06:21:23;9.80;99.90
1880;DHT22;49285;49.002;8.390;2023-02-04T06:23:49;9.80;99.90
1880;DHT22;49285;49.002;8.390;2023-02-04T06:26:14;9.80;99.90
1880;DHT22;49285;49.002;8.390;2023-02-04T06:28:40;9.80;99.90
1880;DHT22;49285;49.002;8.390;2023-02-04T06:31:05;9.90;99.90
1880;DHT22;49285;49.002;8.390;2023-02-04T06:33:34;9.90;99.90
1880;DHT22;49285;49.002;8.390;2023-02-04T06:35:59;9.90;99.90
1880;DHT22;49285;49.002;8.390;2023-02-04T06:38:25;9.90;99.90
1880;DHT22;49285;49.002;8.390;2023-02-04T06:40:50;9.90;99.90
1880;DHT22;49285;49.002;8.390;2023-02-04T06:43:18;9.90;99.90
1880;DHT22;49285;49.002;8.390;2023-02-04T06:45:44;9.90;99.90
1880;DHT22;49285;49.002;8.390;2023-02-04T06:48:09;9.90;99.90
1880;DHT22;49285;49.002;8.390;2023-02-04T06:50:35;9.90;99.90
1880;DHT22;49285;49.002;8.390;2023-02-04T06:53:01;9.90;99.90
1880;DHT22;49285;49.002;8.390;2023-02-04T06:55:26;9.90;99.90
1880;DHT22;49285;49.002;8.390;2023-02-04T06:57:52;9.90;99.90
1880;DHT22;49285;49.002;8.390;2023-02-04T07:00:17;9.90;99.90
1880;DHT22;49285;49.002;8.390;2023-02-04T07:02:43;9.90;99.90
1880;DHT22;49285;49.002;8.390;2023-02-04T07:05:10;9.90;99.90
1880;DHT22;49285;49.002;8.390;2023-02-04T07:07:36;10.00;99.90
1880;DHT22;49285;49.002;8.390;2023-02-04T07:10:02;10.00;99.90
1880;DHT22;49285;49.002;8.390;2023-02-04T07:12:28;9.90;99.90
1880;DHT22;49285;49.002;8.390;2023-02-04T07:14:53;9.90;99.90
1880;DHT22;49285;49.002;8.390;2023-02-04T07:17:19;9.90;99.90
1880;DHT22;49285;49.002;8.390;2023-02-04T07:19:44;9.90;99.90
1880;DHT22;49285;49.002;8.390;2023-02-04T07:22:10;9.90;99.90
1880;DHT22;49285;49.002;8.390;2023-02-04T07:24:35;9.90;99.90
1880;DHT22;49285;49.002;8.390;2023-02-04T07:27:01;9.90;99.90
1880;DHT22;49285;49.002;8.390;2023-02-04T07:29:26;9.90;99.90
1880;DHT22;49285;49.002;8.390;2023-02-04T07:31:52;9.90;99.90
1880;DHT22;49285;49.002;8.390;2023-02-04T07:34:18;9.90;99.90
1880;DHT22;49285;49.002;8.390;2023-02-04T07:36:44;10.00;99.90
1880;DHT22;49285;49.002;8.390;2023-02-04T07:39:10;10.00;99.90
1880;DHT22;49285;49.002;8.390;2023-02-04T07:41:36;9.90;99.90
1880;DHT22;49285;49.002;8.390;2023-02-04T07:44:02;10.00;99.90
1880;DHT22;49285;49.002;8.390;2023-02-04T07:46:27;10.00;99.90
1880;DHT22;49285;49.002;8.390;2023-02-04T07:48:53;10.00;99.90
1880;DHT22;49285;49.002;8.390;2023-02-04T07:51:19;10.00;99.90
1880;DHT22;49285;49.002;8.390;2023-02-04T07:53:44;10.00;99.90
1880;DHT22;49285;49.002;8.390;2023-02-04T07:56:10;10.00;99.90
1880;DHT22;49285;49.002;8.390;2023-02-04T07:58:35;10.00;99.90
1880;DHT22;49285;49.002;8.390;2023-02-04T08:01:01;10.10;99.90
1880;DHT22;49285;49.002;8.390;2023-02-04T08:03:27;10.20;99.90
1880;DHT22;49285;49.002;8.390;2023-02-04T08:05:52;10.20;99.90
1880;DHT22;49285;49.002;8.390;2023-02-04T08:08:18;10.20;99.90
1880;DHT22;49285;49.002;8.390;2023-02-04T08:10:44;10.20;99.90
1880;DHT22;49285;49.002;8.390;2023-02-04T08:13:10;10.30;99.90
1880;DHT22;49285;49.002;8.390;2023-02-04T08:15:36;10.30;99.90
1880;DHT22;49285;49.002;8.390;2023-02-04T08:18:01;10.40;99.90
1880;DHT22;49285;49.002;8.390;2023-02-04T08:20:27;10.40;99.90
1880;DHT22;49285;49.002;8.390;2023-02-04T08:22:53;10.40;99.90
1880;DHT22;49285;49.002;8.390;2023-02-04T08:25:18;10.40;99.90
1880;DHT22;49285;49.002;8.390;2023-02-04T08:27:44;10.40;99.90
1880;DHT22;49285;49.002;8.390;2023-02-04T08:30:10;10.50;99.90
1880;DHT22;49285;49.002;8.390;2023-02-04T08:32:36;10.50;99.90
1880;DHT22;49285;49.002;8.390;2023-02-04T08:35:01;10.60;99.90
1880;DHT22;49285;49.002;8.390;2023-02-04T08:37:27;10.60;99.90
1880;DHT22;49285;49.002;8.390;2023-02-04T08:39:53;10.60;99.90
1880;DHT22;49285;49.002;8.390;2023-02-04T08:42:18;10.60;99.90
1880;DHT22;49285;49.002;8.390;2023-02-04T08:44:44;10.70;99.90
1880;DHT22;49285;49.002;8.390;2023-02-04T08:47:10;10.70;99.90
1880;DHT22;49285;49.002;8.390;2023-02-04T08:49:36;10.70;99.90
1880;DHT22;49285;49.002;8.390;2023-02-04T08:52:02;10.70;99.90
1880;DHT22;49285;49.002;8.390;2023-02-04T08:54:28;10.70;99.90
1880;DHT22;49285;49.002;8.390;2023-02-04T08:56:54;10.80;99.90
1880;DHT22;49285;49.002;8.390;2023-02-04T08:59:20;10.80;99.90
1880;DHT22;49285;49.002;8.390;2023-02-04T09:01:48;10.80;99.90
1880;DHT22;49285;49.002;8.390;2023-02-04T09:04:17;10.80;99.90
1880;DHT22;49285;49.002;8.390;2023-02-04T09:06:43;10.80;99.90
1880;DHT22;49285;49.002;8.390;2023-02-04T09:09:08;10.80;99.90
1880;DHT22;49285;49.002;8.390;2023-02-04T09:11:34;10.90;99.90
1880;DHT22;49285;49.002;8.390;2023-02-04T09:13:59;11.00;99.90
1880;DHT22;49285;49.002;8.390;2023-02-04T09:16:25;11.10;99.90
1880;DHT22;49285;49.002;8.390;2023-02-04T09:18:50;11.10;99.90
1880;DHT22;49285;49.002;8.390;2023-02-04T09:21:16;11.10;99.90
1880;DHT22;49285;49.002;8.390;2023-02-04T09:23:41;11.20;99.90
1880;DHT22;49285;49.002;8.390;2023-02-04T09:26:07;11.20;99.90
1880;DHT22;49285;49.002;8.390;2023-02-04T09:28:32;11.30;99.90
1880;DHT22;49285;49.002;8.390;2023-02-04T09:30:58;11.40;99.90
1880;DHT22;49285;49.002;8.390;2023-02-04T09:33:24;11.40;99.90
1880;DHT22;49285;49.002;8.390;2023-02-04T09:35:50;11.50;99.90
1880;DHT22;49285;49.002;8.390;2023-02-04T09:38:15;11.50;99.90
1880;DHT22;49285;49.002;8.390;2023-02-04T09:40:45;11.50;99.90
1880;DHT22;49285;49.002;8.390;2023-02-04T09:43:23;11.60;99.90
1880;DHT22;49285;49.002;8.390;2023-02-04T09:45:51;11.60;99.90
1880;DHT22;49285;49.002;8.390;2023-02-04T09:48:17;11.60;99.90
1880;DHT22;49285;49.002;8.390;2023-02-04T09:50:43;11.60;99.90
1880;DHT22;49285;49.002;8.390;2023-02-04T09:53:13;11.60;99.90
1880;DHT22;49285;49.002;8.390;2023-02-04T09:55:40;11.60;99.90
1880;DHT22;49285;49.002;8.390;2023-02-04T09:58:28;11.60;99.90
1880;DHT22;49285;49.002;8.390;2023-02-04T10:01:00;11.70;99.90
1880;DHT22;49285;49.002;8.390;2023-02-04T10:03:26;11.70;99.90
1880;DHT22;49285;49.002;8.390;2023-02-04T10:05:51;11.70;99.90
1880;DHT22;49285;49.002;8.390;2023-02-04T10:08:19;11.70;99.90
1880;DHT22;49285;49.002;8.390;2023-02-04T10:10:47;11.70;99.90
1880;DHT22;49285;49.002;8.390;2023-02-04T10:13:21;11.80;99.90
1880;DHT22;49285;49.002;8.390;2023-02-04T10:15:49;11.80;99.90
1880;DHT22;49285;49.002;8.390;2023-02-04T10:18:30;11.70;99.90
1880;DHT22;49285;49.002;8.390;2023-02-04T10:21:07;11.70;99.90
1880;DHT22;49285;49.002;8.390;2023-02-04T10:23:33;11.70;99.90
1880;DHT22;49285;49.002;8.390;2023-02-04T10:25:59;11.70;99.90
1880;DHT22;49285;49.002;8.390;2023-02-04T10:28:35;11.70;99.90
1880;DHT22;49285;49.002;8.390;2023-02-04T10:31:01;11.70;99.90
1880;DHT22;49285;49.002;8.390;2023-02-04T10:33:26;11.70;99.90
1880;DHT22;49285;49.002;8.390;2023-02-04T10:35:55;11.80;99.90
1880;DHT22;49285;49.002;8.390;2023-02-04T10:38:21;11.80;99.90
1880;DHT22;49285;49.002;8.390;2023-02-04T10:40:47;11.80;99.90
1880;DHT22;49285;49.002;8.390;2023-02-04T10:43:20;11.90;99.90
1880;DHT22;49285;49.002;8.390;2023-02-04T10:45:54;11.90;99.90
1880;DHT22;49285;49.002;8.390;2023-02-04T10:48:20;12.00;99.90
1880;DHT22;49285;49.002;8.390;2023-02-04T10:50:47;12.00;99.90
1880;DHT22;49285;49.002;8.390;2023-02-04T10:53:19;12.00;99.90
1880;DHT22;49285;49.002;8.390;2023-02-04T10:56:04;12.00;99.90
1880;DHT22;49285;49.002;8.390;2023-02-04T10:58:31;12.10;99.90
1880;DHT22;49285;49.002;8.390;2023-02-04T11:00:57;12.20;99.90
1880;DHT22;49285;49.002;8.390;2023-02-04T11:03:25;12.30;99.90
1880;DHT22;49285;49.002;8.390;2023-02-04T11:05:52;12.30;99.90
1880;DHT22;49285;49.002;8.390;2023-02-04T11:08:24;12.20;99.90
1880;DHT22;49285;49.002;8.390;2023-02-04T11:11:05;12.20;99.90
1880;DHT22;49285;49.002;8.390;2023-02-04T11:13:42;12.20;99.90
1880;DHT22;49285;49.002;8.390;2023-02-04T11:16:44;12.20;99.90
1880;DHT22;49285;49.002;8.390;2023-02-04T11:19:11;12.10;99.90
1880;DHT22;49285;49.002;8.390;2023-02-04T11:24:22;11.90;99.90
1880;DHT22;49285;49.002;8.390;2023-02-04T11:27:04;11.90;99.90
1880;DHT22;49285;49.002;8.390;2023-02-04T11:29:32;12.00;99.90
1880;DHT22;49285;49.002;8.390;2023-02-04T11:34:49;12.10;99.90
1880;DHT22;49285;49.002;8.390;2023-02-04T11:37:33;12.10;99.90
1880;DHT22;49285;49.002;8.390;2023-02-04T11:39:59;12.10;99.90
1880;DHT22;49285;49.002;8.390;2023-02-04T11:42:31;12.10;99.90
1880;DHT22;49285;49.002;8.390;2023-02-04T11:45:04;12.00;99.90
1880;DHT22;49285;49.002;8.390;2023-02-04T11:47:34;12.00;99.90
1880;DHT22;49285;49.002;8.390;2023-02-04T11:50:04;12.00;99.90
1880;DHT22;49285;49.002;8.390;2023-02-04T11:52:35;12.00;99.90
1880;DHT22;49285;49.002;8.390;2023-02-04T11:55:00;12.10;99.90
1880;DHT22;49285;49.002;8.390;2023-02-04T11:57:26;12.10;99.90
1880;DHT22;49285;49.002;8.390;2023-02-04T11:59:52;12.30;99.90
1880;DHT22;49285;49.002;8.390;2023-02-04T12:02:23;12.40;99.90
1880;DHT22;49285;49.002;8.390;2023-02-04T12:05:12;12.50;99.90
1880;DHT22;49285;49.002;8.390;2023-02-04T12:07:38;12.60;99.90
1880;DHT22;49285;49.002;8.390;2023-02-04T12:10:33;12.70;99.90
1880;DHT22;49285;49.002;8.390;2023-02-04T12:12:59;12.80;99.90
1880;DHT22;49285;49.002;8.390;2023-02-04T12:15:31;12.90;99.90
1880;DHT22;49285;49.002;8.390;2023-02-04T12:18:07;12.80;99.90
1880;DHT22;49285;49.002;8.390;2023-02-04T12:20:35;12.90;99.90
1880;DHT22;49285;49.002;8.390;2023-02-04T12:23:01;12.90;99.90
1880;DHT22;49285;49.002;8.390;2023-02-04T12:25:26;12.80;99.90
1880;DHT22;49285;49.002;8.390;2023-02-04T12:27:53;12.80;99.90
1880;DHT22;49285;49.002;8.390;2023-02-04T12:30:21;12.80;99.90
1880;DHT22;49285;49.002;8.390;2023-02-04T12:32:46;12.90;99.90
1880;DHT22;49285;49.002;8.390;2023-02-04T12:35:12;13.30;99.90
1880;DHT22;49285;49.002;8.390;2023-02-04T12:37:38;13.70;99.90
1880;DHT22;49285;49.002;8.390;2023-02-04T12:40:04;14.00;99.90
1880;DHT22;49285;49.002;8.390;2023-02-04T12:42:30;14.40;99.90
1880;DHT22;49285;49.002;8.390;2023-02-04T12:44:55;14.50;99.90
1880;DHT22;49285;49.002;8.390;2023-02-04T12:47:21;14.60;99.90
1880;DHT22;49285;49.002;8.390;2023-02-04T12:49:46;14.70;99.90
1880;DHT22;49285;49.002;8.390;2023-02-04T12:52:12;14.80;99.90
1880;DHT22;49285;49.002;8.390;2023-02-04T12:54:38;14.80;99.90
1880;DHT22;49285;49.002;8.390;2023-02-04T12:57:03;14.80;99.90
1880;DHT22;49285;49.002;8.390;2023-02-04T12:59:29;14.80;99.90
1880;DHT22;49285;49.002;8.390;2023-02-04T13:01:58;14.70;99.90
1880;DHT22;49285;49.002;8.390;2023-02-04T13:04:23;14.70;99.90
1880;DHT22;49285;49.002;8.390;2023-02-04T13:06:49;14.40;99.90
1880;DHT22;49285;49.002;8.390;2023-02-04T13:09:15;14.10;99.90
1880;DHT22;49285;49.002;8.390;2023-02-04T13:11:40;13.90;99.90
1880;DHT22;49285;49.002;8.390;2023-02-04T13:14:06;14.00;99.90
1880;DHT22;49285;49.002;8.390;2023-02-04T13:16:31;14.10;99.90
1880;DHT22;49285;49.002;8.390;2023-02-04T13:18:57;14.10;99.90
1880;DHT22;49285;49.002;8.390;2023-02-04T13:21:22;14.10;99.90
1880;DHT22;49285;49.002;8.390;2023-02-04T13:23:48;14.10;99.90
1880;DHT22;49285;49.002;8.390;2023-02-04T13:26:14;14.40;99.90
1880;DHT22;49285;49.002;8.390;2023-02-04T13:28:39;14.60;99.90
1880;DHT22;49285;49.002;8.390;2023-02-04T13:31:05;14.90;99.90
1880;DHT22;49285;49.002;8.390;2023-02-04T13:33:31;15.10;99.90
1880;DHT22;49285;49.002;8.390;2023-02-04T13:35:57;15.40;99.90
1880;DHT22;49285;49.002;8.390;2023-02-04T13:38:23;15.60;99.90
1880;DHT22;49285;49.002;8.390;2023-02-04T13:40:49;15.70;99.90
1880;DHT22;49285;49.002;8.390;2023-02-04T13:43:15;15.70;99.90
1880;DHT22;49285;49.002;8.390;2023-02-04T13:45:40;15.60;99.90
1880;DHT22;49285;49.002;8.390;2023-02-04T13:48:12;15.60;99.90
1880;DHT22;49285;49.002;8.390;2023-02-04T13:50:37;15.60;99.90
1880;DHT22;49285;49.002;8.390;2023-02-04T13:53:03;15.50;99.90
1880;DHT22;49285;49.002;8.390;2023-02-04T13:55:29;15.20;99.90
1880;DHT22;49285;49.002;8.390;2023-02-04T13:57:54;15.00;99.90
1880;DHT22;49285;49.002;8.390;2023-02-04T14:00:20;14.80;99.90
1880;DHT22;49285;49.002;8.390;2023-02-04T14:02:46;14.70;99.90
1880;DHT22;49285;49.002;8.390;2023-02-04T14:05:13;14.50;99.90
1880;DHT22;49285;49.002;8.390;2023-02-04T14:07:39;14.20;99.90
1880;DHT22;49285;49.002;8.390;2023-02-04T14:10:05;14.00;99.90
1880;DHT22;49285;49.002;8.390;2023-02-04T14:12:30;13.80;99.90
1880;DHT22;49285;49.002;8.390;2023-02-04T14:14:56;13.70;99.90
1880;DHT22;49285;49.002;8.390;2023-02-04T14:17:21;13.50;99.90
1880;DHT22;49285;49.002;8.390;2023-02-04T14:19:47;13.40;99.90
1880;DHT22;49285;49.002;8.390;2023-02-04T14:22:13;13.50;99.90
1880;DHT22;49285;49.002;8.390;2023-02-04T14:24:38;13.50;99.90
1880;DHT22;49285;49.002;8.390;2023-02-04T14:27:07;13.60;99.90
1880;DHT22;49285;49.002;8.390;2023-02-04T14:29:33;13.80;99.90
1880;DHT22;49285;49.002;8.390;2023-02-04T14:31:59;13.80;99.90
1880;DHT22;49285;49.002;8.390;2023-02-04T14:34:25;13.90;99.90
1880;DHT22;49285;49.002;8.390;2023-02-04T14:36:50;14.00;99.90
1880;DHT22;49285;49.002;8.390;2023-02-04T14:39:16;14.10;99.90
1880;DHT22;49285;49.002;8.390;2023-02-04T14:41:41;14.20;99.90
1880;DHT22;49285;49.002;8.390;2023-02-04T14:44:07;14.10;99.90
1880;DHT22;49285;49.002;8.390;2023-02-04T14:46:32;14.20;99.90
1880;DHT22;49285;49.002;8.390;2023-02-04T14:48:58;14.30;99.90
1880;DHT22;49285;49.002;8.390;2023-02-04T14:51:23;14.40;99.90
1880;DHT22;49285;49.002;8.390;2023-02-04T14:53:49;14.50;99.90
1880;DHT22;49285;49.002;8.390;2023-02-04T14:56:15;14.50;99.90
1880;DHT22;49285;49.002;8.390;2023-02-04T14:58:41;14.60;99.90
1880;DHT22;49285;49.002;8.390;2023-02-04T15:01:07;14.70;99.90
1880;DHT22;49285;49.002;8.390;2023-02-04T15:03:32;14.60;99.90
1880;DHT22;49285;49.002;8.390;2023-02-04T15:05:58;14.60;99.90
1880;DHT22;49285;49.002;8.390;2023-02-04T15:08:23;14.50;99.90
1880;DHT22;49285;49.002;8.390;2023-02-04T15:10:49;14.50;99.90
1880;DHT22;49285;49.002;8.390;2023-02-04T15:13:14;14.50;99.90
1880;DHT22;49285;49.002;8.390;2023-02-04T15:15:40;14.50;99.90
1880;DHT22;49285;49.002;8.390;2023-02-04T15:18:05;14.50;99.90
1880;DHT22;49285;49.002;8.390;2023-02-04T15:20:31;14.40;99.90
1880;DHT22;49285;49.002;8.390;2023-02-04T15:22:57;14.40;99.90
1880;DHT22;49285;49.002;8.390;2023-02-04T15:25:22;14.30;99.90
1880;DHT22;49285;49.002;8.390;2023-02-04T15:27:48;14.20;99.90
1880;DHT22;49285;49.002;8.390;2023-02-04T15:30:14;14.20;99.90
1880;DHT22;49285;49.002;8.390;2023-02-04T15:32:40;14.20;99.90
1880;DHT22;49285;49.002;8.390;2023-02-04T15:35:07;14.10;99.90
1880;DHT22;49285;49.002;8.390;2023-02-04T15:37:34;13.90;99.90
1880;DHT22;49285;49.002;8.390;2023-02-04T15:39:59;13.80;99.90
1880;DHT22;49285;49.002;8.390;2023-02-04T15:42:25;13.70;99.90
1880;DHT22;49285;49.002;8.390;2023-02-04T15:44:51;13.60;99.90
1880;DHT22;49285;49.002;8.390;2023-02-04T15:47:17;13.50;99.90
1880;DHT22;49285;49.002;8.390;2023-02-04T15:49:44;13.30;99.90
1880;DHT22;49285;49.002;8.390;2023-02-04T15:52:09;13.20;99.90
1880;DHT22;49285;49.002;8.390;2023-02-04T15:54:35;13.20;99.90
1880;DHT22;49285;49.002;8.390;2023-02-04T15:57:01;13.10;99.90